createdAt,value
2023-02-14T00:00:09.527Z,100.00
2023-02-14T00:02:35.576Z,100.00
2023-02-14T00:05:01.431Z,100.00
2023-02-14T00:07:27.342Z,100.00
2023-02-14T00:09:53.149Z,100.00
2023-02-14T00:12:19.010Z,100.00
2023-02-14T00:15:03.599Z,100.00
2023-02-14T00:17:29.484Z,100.00
2023-02-14T00:19:55.357Z,100.00
2023-02-14T00:22:21.292Z,100.00
2023-02-14T00:24:47.177Z,100.00
2023-02-14T00:27:12.964Z,100.00
2023-02-14T00:29:38.738Z,100.00
2023-02-14T00:32:04.757Z,100.00
2023-02-14T00:34:32.616Z,100.00
2023-02-14T00:36:59.682Z,100.00
2023-02-14T00:39:25.637Z,100.00
2023-02-14T00:41:51.493Z,100.00
2023-02-14T00:44:17.535Z,100.00
2023-02-14T00:46:43.521Z,100.00
2023-02-14T00:49:09.508Z,100.00
2023-02-14T00:51:35.422Z,100.00
2023-02-14T00:54:01.316Z,100.00
2023-02-14T00:56:27.172Z,100.00
2023-02-14T00:58:53.044Z,100.00
2023-02-14T01:01:19.060Z,100.00
2023-02-14T01:03:45.326Z,100.00
2023-02-14T01:06:11.302Z,100.00
2023-02-14T01:08:37.211Z,100.00
2023-02-14T01:11:15.562Z,100.00
2023-02-14T01:13:42.551Z,100.00
2023-02-14T01:16:11.313Z,100.00
2023-02-14T01:18:37.854Z,100.00
2023-02-14T01:21:16.866Z,100.00
2023-02-14T01:23:43.252Z,100.00
2023-02-14T01:26:09.960Z,100.00
2023-02-14T01:28:36.054Z,100.00
2023-02-14T01:31:06.973Z,100.00
2023-02-14T01:33:32.817Z,100.00
2023-02-14T01:35:59.960Z,100.00
2023-02-14T01:38:25.998Z,100.00
2023-02-14T01:40:51.866Z,100.00
2023-02-14T01:43:17.700Z,100.00
2023-02-14T01:45:43.632Z,100.00
2023-02-14T01:48:10.062Z,100.00
2023-02-14T01:50:41.072Z,100.00
2023-02-14T01:53:15.260Z,100.00
2023-02-14T01:55:47.552Z,100.00
2023-02-14T01:58:18.624Z,100.00
2023-02-14T02:00:57.326Z,100.00
2023-02-14T02:03:39.039Z,100.00
2023-02-14T02:06:14.654Z,100.00
2023-02-14T02:08:45.334Z,100.00
2023-02-14T02:11:11.167Z,100.00
2023-02-14T02:13:37.022Z,100.00
2023-02-14T02:16:50.689Z,100.00
2023-02-14T02:19:56.038Z,100.00
2023-02-14T02:22:45.809Z,100.00
2023-02-14T02:25:44.097Z,100.00
2023-02-14T02:28:48.373Z,100.00
2023-02-14T02:31:35.956Z,100.00
2023-02-14T02:34:33.894Z,100.00
2023-02-14T02:37:17.580Z,100.00
2023-02-14T02:40:08.096Z,100.00
2023-02-14T02:42:55.515Z,100.00
2023-02-14T02:45:28.802Z,100.00
2023-02-14T02:48:29.275Z,100.00
2023-02-14T02:51:16.462Z,100.00
2023-02-14T02:53:50.714Z,100.00
2023-02-14T02:56:45.586Z,100.00
2023-02-14T02:59:35.523Z,100.00
2023-02-14T03:02:22.883Z,100.00
2023-02-14T03:04:57.201Z,100.00
2023-02-14T03:07:39.109Z,100.00
2023-02-14T03:10:15.118Z,100.00
2023-02-14T03:13:14.767Z,100.00
2023-02-14T03:16:01.344Z,100.00
2023-02-14T03:19:10.205Z,100.00
2023-02-14T03:21:58.418Z,100.00
2023-02-14T03:24:27.523Z,100.00
2023-02-14T03:27:24.328Z,100.00
2023-02-14T03:30:13.907Z,100.00
2023-02-14T03:32:59.227Z,100.00
2023-02-14T03:35:34.607Z,100.00
2023-02-14T03:38:10.804Z,100.00
2023-02-14T03:40:40.126Z,100.00
2023-02-14T03:43:16.823Z,100.00
2023-02-14T03:45:54.008Z,100.00
2023-02-14T03:48:23.411Z,100.00
2023-02-14T03:50:51.447Z,100.00
2023-02-14T03:53:21.883Z,100.00
2023-02-14T03:56:00.947Z,100.00
2023-02-14T03:58:32.053Z,100.00
2023-02-14T04:01:03.514Z,100.00
2023-02-14T04:03:31.592Z,100.00
2023-02-14T04:05:58.143Z,100.00
2023-02-14T04:08:26.648Z,100.00
2023-02-14T04:10:55.513Z,100.00
2023-02-14T04:13:21.597Z,100.00
2023-02-14T04:15:47.497Z,100.00
2023-02-14T04:18:31.944Z,100.00
2023-02-14T04:20:57.977Z,100.00
2023-02-14T04:23:24.019Z,100.00
2023-02-14T04:25:49.908Z,100.00
2023-02-14T04:28:15.907Z,100.00
2023-02-14T04:30:41.919Z,100.00
2023-02-14T04:33:07.713Z,100.00
2023-02-14T04:35:34.891Z,100.00
2023-02-14T04:38:01.577Z,100.00
2023-02-14T04:40:27.728Z,100.00
2023-02-14T04:42:53.647Z,100.00
2023-02-14T04:45:19.462Z,100.00
2023-02-14T04:47:45.691Z,100.00
2023-02-14T04:50:12.135Z,100.00
2023-02-14T04:52:38.623Z,100.00
2023-02-14T04:55:06.246Z,100.00
2023-02-14T04:57:32.257Z,100.00
2023-02-14T04:59:58.077Z,100.00
2023-02-14T05:02:26.854Z,100.00
2023-02-14T05:04:52.771Z,100.00
2023-02-14T05:07:18.601Z,100.00
2023-02-14T05:09:44.424Z,100.00
2023-02-14T05:12:10.249Z,100.00
2023-02-14T05:14:36.222Z,100.00
2023-02-14T05:17:02.379Z,100.00
2023-02-14T05:19:28.384Z,100.00
2023-02-14T05:21:54.243Z,100.00
2023-02-14T05:24:20.036Z,100.00
2023-02-14T05:26:45.904Z,100.00
2023-02-14T05:29:11.916Z,100.00
2023-02-14T05:31:37.825Z,100.00
2023-02-14T05:34:03.626Z,100.00
2023-02-14T05:36:29.880Z,100.00
2023-02-14T05:38:55.757Z,100.00
2023-02-14T05:41:21.610Z,100.00
2023-02-14T05:43:47.474Z,100.00
2023-02-14T05:46:13.486Z,100.00
2023-02-14T05:48:39.398Z,100.00
2023-02-14T05:51:09.927Z,100.00
2023-02-14T05:53:36.409Z,100.00
2023-02-14T05:56:02.902Z,100.00
2023-02-14T05:58:28.774Z,100.00
2023-02-14T06:00:56.789Z,100.00
2023-02-14T06:03:22.612Z,100.00
2023-02-14T06:05:48.428Z,100.00
2023-02-14T06:08:14.343Z,100.00
2023-02-14T06:10:40.224Z,100.00
2023-02-14T06:13:08.206Z,100.00
2023-02-14T06:15:35.293Z,100.00
2023-02-14T06:18:01.280Z,100.00
2023-02-14T06:20:27.517Z,100.00
2023-02-14T06:22:54.053Z,100.00
2023-02-14T06:25:21.663Z,100.00
2023-02-14T06:27:49.367Z,100.00
2023-02-14T06:30:16.432Z,100.00
2023-02-14T06:32:42.329Z,100.00
2023-02-14T06:35:08.245Z,100.00
2023-02-14T06:37:34.111Z,100.00
2023-02-14T06:40:01.100Z,100.00
2023-02-14T06:42:27.037Z,100.00
2023-02-14T06:44:53.131Z,100.00
2023-02-14T06:47:19.054Z,100.00
2023-02-14T06:49:44.932Z,100.00
2023-02-14T06:52:10.747Z,100.00
2023-02-14T06:54:36.556Z,100.00
2023-02-14T06:57:02.711Z,100.00
2023-02-14T06:59:29.166Z,100.00
2023-02-14T07:01:54.963Z,100.00
2023-02-14T07:04:20.812Z,100.00
2023-02-14T07:06:46.851Z,100.00
2023-02-14T07:09:17.052Z,100.00
2023-02-14T07:11:44.568Z,100.00
2023-02-14T07:14:10.977Z,100.00
2023-02-14T07:16:36.991Z,100.00
2023-02-14T07:19:02.838Z,100.00
2023-02-14T07:21:29.068Z,100.00
2023-02-14T07:23:54.926Z,100.00
2023-02-14T07:26:20.739Z,100.00
2023-02-14T07:28:48.506Z,100.00
2023-02-14T07:31:16.192Z,100.00
2023-02-14T07:33:42.083Z,100.00
2023-02-14T07:36:08.575Z,100.00
2023-02-14T07:38:35.398Z,100.00
2023-02-14T07:41:01.677Z,100.00
2023-02-14T07:43:27.951Z,100.00
2023-02-14T07:45:53.936Z,100.00
2023-02-14T07:48:19.822Z,100.00
2023-02-14T07:50:45.923Z,100.00
2023-02-14T07:53:11.762Z,100.00
2023-02-14T07:55:38.841Z,100.00
2023-02-14T07:58:04.649Z,100.00
2023-02-14T08:00:30.440Z,100.00
2023-02-14T08:02:56.396Z,100.00
2023-02-14T08:05:22.454Z,100.00
2023-02-14T08:07:48.405Z,100.00
2023-02-14T08:10:14.548Z,100.00
2023-02-14T08:12:58.468Z,100.00
2023-02-14T08:15:52.195Z,100.00
2023-02-14T08:18:20.082Z,100.00
2023-02-14T08:20:50.420Z,100.00
2023-02-14T08:23:17.833Z,100.00
2023-02-14T08:25:43.846Z,100.00
2023-02-14T08:28:09.921Z,100.00
2023-02-14T08:30:37.430Z,100.00
2023-02-14T08:33:04.144Z,100.00
2023-02-14T08:35:29.996Z,100.00
2023-02-14T08:37:55.826Z,100.00
2023-02-14T08:40:21.711Z,100.00
2023-02-14T08:42:47.490Z,100.00
2023-02-14T08:45:13.797Z,100.00
2023-02-14T08:47:39.655Z,100.00
2023-02-14T08:50:08.985Z,100.00
2023-02-14T08:52:34.803Z,100.00
2023-02-14T08:55:02.024Z,100.00
2023-02-14T08:57:28.148Z,100.00
2023-02-14T08:59:54.032Z,100.00
2023-02-14T09:02:20.088Z,100.00
2023-02-14T09:04:46.039Z,100.00
2023-02-14T09:07:12.997Z,100.00
2023-02-14T09:09:39.010Z,100.00
2023-02-14T09:12:06.597Z,100.00
2023-02-14T09:14:37.583Z,100.00
2023-02-14T09:17:05.221Z,100.00
2023-02-14T09:19:36.484Z,100.00
2023-02-14T09:22:04.307Z,100.00
2023-02-14T09:24:31.847Z,100.00
2023-02-14T09:26:58.027Z,100.00
2023-02-14T09:29:24.695Z,100.00
2023-02-14T09:32:00.025Z,100.00
2023-02-14T09:34:27.619Z,97.83
2023-02-14T09:36:53.466Z,98.38
2023-02-14T09:39:19.506Z,98.09
2023-02-14T09:42:11.861Z,95.24
2023-02-14T09:44:56.177Z,93.53
2023-02-14T09:47:29.888Z,91.18
2023-02-14T09:49:57.563Z,87.49
2023-02-14T09:52:27.665Z,86.32
2023-02-14T09:54:57.170Z,82.82
2023-02-14T09:57:38.133Z,81.00
2023-02-14T10:00:39.406Z,74.98
2023-02-14T10:03:31.132Z,66.19
2023-02-14T10:06:35.841Z,57.45
2023-02-14T10:09:25.933Z,47.62
2023-02-14T10:11:53.128Z,34.80
2023-02-14T10:14:27.301Z,28.21
2023-02-14T10:16:59.005Z,24.04
2023-02-14T10:19:27.118Z,20.13
2023-02-14T10:21:57.222Z,17.68
2023-02-14T10:24:47.063Z,18.01
2023-02-14T10:27:35.718Z,17.06
2023-02-14T10:30:10.456Z,14.37
2023-02-14T10:33:01.824Z,13.77
2023-02-14T10:35:42.230Z,14.86
2023-02-14T10:38:26.571Z,15.05
2023-02-14T10:41:22.404Z,13.01
2023-02-14T10:43:57.100Z,12.14
2023-02-14T10:46:58.423Z,12.02
2023-02-14T10:49:36.414Z,12.42
2023-02-14T10:52:26.191Z,11.40
2023-02-14T10:55:04.902Z,11.39
2023-02-14T10:57:33.270Z,10.95
2023-02-14T11:00:23.910Z,12.46
2023-02-14T11:02:58.653Z,12.65
2023-02-14T11:05:32.123Z,13.54
2023-02-14T11:08:01.322Z,12.97
2023-02-14T11:10:33.439Z,13.66
2023-02-14T11:12:59.544Z,13.74
2023-02-14T11:15:30.705Z,14.75
2023-02-14T11:18:23.565Z,12.61
2023-02-14T11:21:03.897Z,11.27
2023-02-14T11:23:39.597Z,10.92
2023-02-14T11:26:29.192Z,10.69
2023-02-14T11:28:59.396Z,10.91
2023-02-14T11:31:31.544Z,10.37
2023-02-14T11:33:58.308Z,10.24
2023-02-14T11:36:25.623Z,11.15
2023-02-14T11:39:13.806Z,12.66
2023-02-14T11:41:55.592Z,12.07
2023-02-14T11:44:24.408Z,13.24
2023-02-14T11:46:53.967Z,14.03
2023-02-14T11:49:34.648Z,12.14
2023-02-14T11:52:10.398Z,13.53
2023-02-14T11:54:39.738Z,15.03
2023-02-14T11:57:32.215Z,15.92
2023-02-14T12:00:01.292Z,15.37
2023-02-14T12:02:39.894Z,15.86
2023-02-14T12:05:14.929Z,17.05
2023-02-14T12:07:43.668Z,16.70
2023-02-14T12:10:12.482Z,17.24
2023-02-14T12:12:51.979Z,17.65
2023-02-14T12:15:38.076Z,18.23
2023-02-14T12:18:36.165Z,18.16
2023-02-14T12:21:17.165Z,17.95
2023-02-14T12:24:13.857Z,16.76
2023-02-14T12:27:21.847Z,14.92
2023-02-14T12:29:58.932Z,15.12
2023-02-14T12:32:31.156Z,15.55
2023-02-14T12:35:15.315Z,15.52
2023-02-14T12:38:05.174Z,16.20
2023-02-14T12:40:46.557Z,15.35
2023-02-14T12:43:33.689Z,17.92
2023-02-14T12:46:38.268Z,16.65
2023-02-14T12:49:04.147Z,14.21
2023-02-14T12:51:39.824Z,13.26
2023-02-14T12:54:11.680Z,14.78
2023-02-14T12:56:43.603Z,16.99
2023-02-14T12:59:15.470Z,14.82
2023-02-14T13:02:15.385Z,13.71
2023-02-14T13:05:12.301Z,14.44
2023-02-14T13:07:49.548Z,14.12
2023-02-14T13:10:39.571Z,14.30
2023-02-14T13:13:17.404Z,12.50
2023-02-14T13:16:12.153Z,14.14
2023-02-14T13:18:37.912Z,14.02
2023-02-14T13:21:08.991Z,13.90
2023-02-14T13:23:41.897Z,13.69
2023-02-14T13:26:27.239Z,13.24
2023-02-14T13:29:01.039Z,13.30
2023-02-14T13:31:27.749Z,13.54
2023-02-14T13:34:00.065Z,13.69
2023-02-14T13:36:26.554Z,13.34
2023-02-14T13:41:28.136Z,13.96
2023-02-14T13:43:57.981Z,15.78
2023-02-14T13:46:50.270Z,16.31
2023-02-14T13:49:19.051Z,16.50
2023-02-14T13:51:51.847Z,18.25
2023-02-14T13:54:29.456Z,20.41
2023-02-14T13:56:56.475Z,22.34
2023-02-14T13:59:34.845Z,23.66
2023-02-14T14:02:27.620Z,26.87
2023-02-14T14:04:54.824Z,28.63
2023-02-14T14:07:30.095Z,31.02
2023-02-14T14:09:59.301Z,34.85
2023-02-14T14:12:27.920Z,35.91
2023-02-14T14:15:06.018Z,38.72
2023-02-14T14:17:36.984Z,39.13
2023-02-14T14:20:15.183Z,39.80
2023-02-14T14:22:59.377Z,42.21
2023-02-14T14:25:35.585Z,42.64
2023-02-14T14:28:01.398Z,43.50
2023-02-14T14:30:32.315Z,44.63
2023-02-14T14:33:16.412Z,44.73
2023-02-14T14:36:02.386Z,44.90
2023-02-14T14:38:30.372Z,45.31
2023-02-14T14:40:57.069Z,44.75
2023-02-14T14:43:34.325Z,45.42
2023-02-14T14:46:01.754Z,46.79
2023-02-14T14:48:38.715Z,46.68
2023-02-14T14:51:16.333Z,47.07
2023-02-14T14:54:07.782Z,47.08
2023-02-14T14:56:49.108Z,46.82
2023-02-14T14:59:22.727Z,47.03
2023-02-14T15:01:50.741Z,46.96
2023-02-14T15:04:24.203Z,48.03
2023-02-14T15:06:51.169Z,48.33
2023-02-14T15:09:31.069Z,48.42
2023-02-14T15:12:19.116Z,49.40
2023-02-14T15:14:53.892Z,48.97
2023-02-14T15:17:32.175Z,48.01
2023-02-14T15:20:06.020Z,48.66
2023-02-14T15:22:50.273Z,49.39
2023-02-14T15:25:20.914Z,50.24
2023-02-14T15:27:47.376Z,50.25
2023-02-14T15:30:19.387Z,51.12
2023-02-14T15:32:48.777Z,52.54
2023-02-14T15:35:17.063Z,51.88
2023-02-14T15:37:44.559Z,51.92
2023-02-14T15:40:19.354Z,52.25
2023-02-14T15:42:45.669Z,51.96
2023-02-14T15:45:22.996Z,53.27
2023-02-14T15:47:55.209Z,53.52
2023-02-14T15:50:25.349Z,52.79
2023-02-14T15:52:59.377Z,53.79
2023-02-14T15:55:26.879Z,54.03
2023-02-14T15:58:05.160Z,54.51
2023-02-14T16:00:31.937Z,55.12
2023-02-14T16:03:11.415Z,56.11
2023-02-14T16:05:37.572Z,56.23
2023-02-14T16:08:07.126Z,56.35
2023-02-14T16:10:35.215Z,56.68
2023-02-14T16:13:04.362Z,56.36
2023-02-14T16:15:33.072Z,58.10
2023-02-14T16:18:00.414Z,57.62
2023-02-14T16:20:39.334Z,57.82
2023-02-14T16:23:21.511Z,58.21
2023-02-14T16:25:48.007Z,58.88
2023-02-14T16:28:14.351Z,59.25
2023-02-14T16:30:41.916Z,59.86
2023-02-14T16:33:18.409Z,59.65
2023-02-14T16:35:45.216Z,61.13
2023-02-14T16:38:19.256Z,62.30
2023-02-14T16:40:51.206Z,64.84
2023-02-14T16:43:18.826Z,63.83
2023-02-14T16:45:45.616Z,65.44
2023-02-14T16:48:14.986Z,65.15
2023-02-14T16:50:41.681Z,65.56
2023-02-14T16:53:31.613Z,65.81
2023-02-14T16:55:57.523Z,66.41
2023-02-14T16:58:29.140Z,67.71
2023-02-14T17:00:57.401Z,70.62
2023-02-14T17:03:23.317Z,72.08
2023-02-14T17:05:49.621Z,73.60
2023-02-14T17:08:16.175Z,74.74
2023-02-14T17:10:44.337Z,75.02
2023-02-14T17:13:10.979Z,75.67
2023-02-14T17:15:38.041Z,76.41
2023-02-14T17:18:09.251Z,77.33
2023-02-14T17:20:35.879Z,77.46
2023-02-14T17:23:01.766Z,77.99
2023-02-14T17:25:27.925Z,80.09
2023-02-14T17:27:55.996Z,80.45
2023-02-14T17:30:22.697Z,80.63
2023-02-14T17:32:51.644Z,81.69
2023-02-14T17:35:18.218Z,81.47
2023-02-14T17:37:44.591Z,82.15
2023-02-14T17:40:11.570Z,82.74
2023-02-14T17:42:38.086Z,83.73
2023-02-14T17:45:05.874Z,84.30
2023-02-14T17:47:32.517Z,85.44
2023-02-14T17:49:58.427Z,86.75
2023-02-14T17:52:24.712Z,86.95
2023-02-14T17:54:50.626Z,87.32
2023-02-14T17:57:16.804Z,87.99
2023-02-14T17:59:44.554Z,88.20
2023-02-14T18:02:10.423Z,88.22
2023-02-14T18:04:36.598Z,89.09
2023-02-14T18:07:03.792Z,88.50
2023-02-14T18:09:29.948Z,87.49
2023-02-14T18:11:55.856Z,87.06
2023-02-14T18:14:22.012Z,85.81
2023-02-14T18:16:48.094Z,84.27
2023-02-14T18:19:15.302Z,84.46
2023-02-14T18:21:42.560Z,82.38
2023-02-14T18:24:09.626Z,80.75
2023-02-14T18:26:37.016Z,80.49
2023-02-14T18:29:05.920Z,80.05
2023-02-14T18:31:36.929Z,80.00
2023-02-14T18:34:04.545Z,79.45
2023-02-14T18:36:31.800Z,79.53
2023-02-14T18:38:58.663Z,78.64
2023-02-14T18:41:25.778Z,78.60
2023-02-14T18:43:51.771Z,78.19
2023-02-14T18:46:20.563Z,78.63
2023-02-14T18:48:46.956Z,78.88
2023-02-14T18:51:24.789Z,78.11
2023-02-14T18:53:51.515Z,78.67
2023-02-14T18:56:28.002Z,78.48
2023-02-14T18:58:59.194Z,79.16
2023-02-14T19:01:28.793Z,78.74
2023-02-14T19:03:55.822Z,79.72
2023-02-14T19:06:21.957Z,78.99
2023-02-14T19:08:48.677Z,77.77
2023-02-14T19:11:24.178Z,78.02
2023-02-14T19:13:54.098Z,78.22
2023-02-14T19:16:23.373Z,78.41
2023-02-14T19:18:49.700Z,78.32
2023-02-14T19:21:21.827Z,78.62
2023-02-14T19:23:48.682Z,78.46
2023-02-14T19:26:18.254Z,79.49
2023-02-14T19:28:48.244Z,79.40
2023-02-14T19:31:15.007Z,79.17
2023-02-14T19:33:44.103Z,79.24
2023-02-14T19:36:14.761Z,79.91
2023-02-14T19:38:42.891Z,80.45
2023-02-14T19:41:18.431Z,80.42
2023-02-14T19:43:45.311Z,81.34
2023-02-14T19:46:15.274Z,82.63
2023-02-14T19:48:41.840Z,83.49
2023-02-14T19:51:07.993Z,83.30
2023-02-14T19:53:34.322Z,84.55
2023-02-14T19:56:00.501Z,83.32
2023-02-14T19:58:26.486Z,83.99
2023-02-14T20:00:59.147Z,84.73
2023-02-14T20:03:26.248Z,84.17
2023-02-14T20:05:52.146Z,85.90
2023-02-14T20:08:18.188Z,86.96
2023-02-14T20:10:44.808Z,86.54
2023-02-14T20:13:11.159Z,85.68
2023-02-14T20:15:37.112Z,85.71
2023-02-14T20:18:03.786Z,84.75
2023-02-14T20:20:49.951Z,84.91
2023-02-14T20:23:15.870Z,84.62
2023-02-14T20:25:41.793Z,85.08
2023-02-14T20:28:07.705Z,85.02
2023-02-14T20:30:33.596Z,85.41
2023-02-14T20:32:59.653Z,84.62
2023-02-14T20:35:25.649Z,85.19
2023-02-14T20:37:51.832Z,85.04
2023-02-14T20:40:18.792Z,83.21
2023-02-14T20:42:47.744Z,82.39
2023-02-14T20:45:13.667Z,83.60
2023-02-14T20:47:39.635Z,83.17
2023-02-14T20:50:06.435Z,84.11
2023-02-14T20:52:35.530Z,82.79
2023-02-14T20:55:01.418Z,83.17
2023-02-14T20:57:29.058Z,83.05
2023-02-14T20:59:55.038Z,84.29
2023-02-14T21:02:20.988Z,84.11
2023-02-14T21:04:46.827Z,83.92
2023-02-14T21:07:12.730Z,84.73
2023-02-14T21:09:38.851Z,84.92
2023-02-14T21:12:06.074Z,86.14
2023-02-14T21:14:32.103Z,85.73
2023-02-14T21:16:57.964Z,86.95
2023-02-14T21:19:23.784Z,86.91
2023-02-14T21:21:49.896Z,86.90
2023-02-14T21:24:16.161Z,88.67
2023-02-14T21:26:43.102Z,89.07
2023-02-14T21:29:09.470Z,89.84
2023-02-14T21:31:36.189Z,89.55
2023-02-14T21:34:02.666Z,88.66
2023-02-14T21:36:31.370Z,89.08
2023-02-14T21:38:59.097Z,90.19
2023-02-14T21:41:28.143Z,89.82
2023-02-14T21:43:58.474Z,90.34
2023-02-14T21:46:30.072Z,91.39
2023-02-14T21:49:19.141Z,91.73
2023-02-14T21:51:46.241Z,91.23
2023-02-14T21:54:13.021Z,90.42
2023-02-14T21:56:40.698Z,89.20
2023-02-14T21:59:08.265Z,89.03
2023-02-14T22:01:36.426Z,87.46
2023-02-14T22:04:07.061Z,87.39
2023-02-14T22:06:35.540Z,86.17
2023-02-14T22:09:01.430Z,85.59
2023-02-14T22:11:28.816Z,85.06
2023-02-14T22:13:55.680Z,84.08
2023-02-14T22:16:24.056Z,83.26
2023-02-14T22:18:50.645Z,82.94
2023-02-14T22:21:24.946Z,81.31
2023-02-14T22:23:51.347Z,81.63
2023-02-14T22:26:18.949Z,80.83
2023-02-14T22:28:47.264Z,80.68
2023-02-14T22:31:14.949Z,80.18
2023-02-14T22:33:40.902Z,80.48
2023-02-14T22:36:07.751Z,78.69
2023-02-14T22:38:34.531Z,78.98
2023-02-14T22:41:12.007Z,78.67
2023-02-14T22:43:38.949Z,77.64
2023-02-14T22:46:07.089Z,77.92
2023-02-14T22:48:35.501Z,76.31
2023-02-14T22:51:32.308Z,75.57
2023-02-14T22:54:09.318Z,74.55
2023-02-14T22:56:38.926Z,73.37
2023-02-14T22:59:08.178Z,73.03
2023-02-14T23:01:35.204Z,71.31
2023-02-14T23:04:03.041Z,70.29
2023-02-14T23:06:31.131Z,70.02
2023-02-14T23:08:57.134Z,69.15
2023-02-14T23:11:25.990Z,68.21
2023-02-14T23:14:10.609Z,67.93
2023-02-14T23:16:55.171Z,68.07
2023-02-14T23:19:42.383Z,67.95
2023-02-14T23:22:13.671Z,68.13
2023-02-14T23:24:39.940Z,67.62
2023-02-14T23:27:07.255Z,67.30
2023-02-14T23:29:33.438Z,67.50
2023-02-14T23:31:59.334Z,68.21
2023-02-14T23:34:27.140Z,68.95
2023-02-14T23:36:53.123Z,69.22
2023-02-14T23:39:18.918Z,71.30
2023-02-14T23:41:47.563Z,72.21
2023-02-14T23:44:15.589Z,73.90
2023-02-14T23:46:41.522Z,75.20
2023-02-14T23:49:07.650Z,77.01
2023-02-14T23:51:34.286Z,77.70
2023-02-14T23:54:00.527Z,78.39
2023-02-14T23:56:26.700Z,78.94
2023-02-14T23:58:52.685Z,79.88
